sensor_id;sensor_type;location;lat;lon;timestamp;P1;durP1;ratioP1;P2;durP2;ratioP2
39750;SDS011;37579;51.074;17.004;2023-03-23T00:02:23;6.88;;;3.22;;
39750;SDS011;37579;51.074;17.004;2023-03-23T00:04:50;7.13;;;3.78;;
39750;SDS011;37579;51.074;17.004;2023-03-23T00:07:15;6.50;;;3.25;;
39750;SDS011;37579;51.074;17.004;2023-03-23T00:09:47;5.88;;;3.72;;
39750;SDS011;37579;51.074;17.004;2023-03-23T00:12:18;5.63;;;3.85;;
39750;SDS011;37579;51.074;17.004;2023-03-23T00:15:01;7.28;;;3.47;;
39750;SDS011;37579;51.074;17.004;2023-03-23T00:17:32;5.40;;;3.25;;
39750;SDS011;37579;51.074;17.004;2023-03-23T00:19:58;5.35;;;3.67;;
39750;SDS011;37579;51.074;17.004;2023-03-23T00:22:26;5.28;;;3.38;;
39750;SDS011;37579;51.074;17.004;2023-03-23T00:24:53;5.78;;;3.63;;
39750;SDS011;37579;51.074;17.004;2023-03-23T00:27:21;5.80;;;3.55;;
39750;SDS011;37579;51.074;17.004;2023-03-23T00:29:48;5.15;;;3.50;;
39750;SDS011;37579;51.074;17.004;2023-03-23T00:32:18;6.57;;;3.40;;
39750;SDS011;37579;51.074;17.004;2023-03-23T00:34:46;8.10;;;3.83;;
39750;SDS011;37579;51.074;17.004;2023-03-23T00:37:13;6.20;;;3.75;;
39750;SDS011;37579;51.074;17.004;2023-03-23T00:39:41;5.22;;;3.42;;
39750;SDS011;37579;51.074;17.004;2023-03-23T00:42:10;5.15;;;3.15;;
39750;SDS011;37579;51.074;17.004;2023-03-23T00:44:38;6.63;;;3.35;;
39750;SDS011;37579;51.074;17.004;2023-03-23T00:47:05;4.93;;;3.35;;
39750;SDS011;37579;51.074;17.004;2023-03-23T00:49:31;6.05;;;3.67;;
39750;SDS011;37579;51.074;17.004;2023-03-23T00:52:00;5.57;;;3.60;;
39750;SDS011;37579;51.074;17.004;2023-03-23T00:54:26;5.07;;;3.20;;
39750;SDS011;37579;51.074;17.004;2023-03-23T00:56:52;5.05;;;3.28;;
39750;SDS011;37579;51.074;17.004;2023-03-23T00:59:19;5.50;;;3.30;;
39750;SDS011;37579;51.074;17.004;2023-03-23T01:01:46;5.78;;;3.33;;
39750;SDS011;37579;51.074;17.004;2023-03-23T01:04:12;5.22;;;3.10;;
39750;SDS011;37579;51.074;17.004;2023-03-23T01:06:40;6.38;;;3.20;;
39750;SDS011;37579;51.074;17.004;2023-03-23T01:09:09;4.65;;;3.00;;
39750;SDS011;37579;51.074;17.004;2023-03-23T01:11:45;5.93;;;3.63;;
39750;SDS011;37579;51.074;17.004;2023-03-23T01:14:13;4.25;;;3.28;;
39750;SDS011;37579;51.074;17.004;2023-03-23T01:16:41;4.43;;;3.17;;
39750;SDS011;37579;51.074;17.004;2023-03-23T01:19:07;5.70;;;3.13;;
39750;SDS011;37579;51.074;17.004;2023-03-23T01:21:33;5.65;;;3.15;;
39750;SDS011;37579;51.074;17.004;2023-03-23T01:23:59;4.53;;;2.97;;
39750;SDS011;37579;51.074;17.004;2023-03-23T01:26:26;5.22;;;3.15;;
39750;SDS011;37579;51.074;17.004;2023-03-23T01:28:53;5.53;;;2.92;;
39750;SDS011;37579;51.074;17.004;2023-03-23T01:31:20;6.10;;;3.47;;
39750;SDS011;37579;51.074;17.004;2023-03-23T01:33:48;4.95;;;2.92;;
39750;SDS011;37579;51.074;17.004;2023-03-23T01:36:17;4.97;;;3.25;;
39750;SDS011;37579;51.074;17.004;2023-03-23T01:38:47;4.80;;;3.30;;
39750;SDS011;37579;51.074;17.004;2023-03-23T01:41:15;4.18;;;3.05;;
39750;SDS011;37579;51.074;17.004;2023-03-23T01:46:34;4.45;;;2.78;;
39750;SDS011;37579;51.074;17.004;2023-03-23T01:49:11;5.50;;;3.25;;
39750;SDS011;37579;51.074;17.004;2023-03-23T01:51:45;4.97;;;3.10;;
39750;SDS011;37579;51.074;17.004;2023-03-23T01:54:13;4.78;;;3.25;;
39750;SDS011;37579;51.074;17.004;2023-03-23T01:56:50;4.23;;;3.63;;
39750;SDS011;37579;51.074;17.004;2023-03-23T01:59:21;4.60;;;3.10;;
39750;SDS011;37579;51.074;17.004;2023-03-23T02:01:58;4.65;;;3.30;;
39750;SDS011;37579;51.074;17.004;2023-03-23T02:04:26;4.25;;;2.85;;
39750;SDS011;37579;51.074;17.004;2023-03-23T02:06:54;3.80;;;2.88;;
39750;SDS011;37579;51.074;17.004;2023-03-23T02:09:25;4.65;;;3.05;;
39750;SDS011;37579;51.074;17.004;2023-03-23T02:11:52;5.57;;;3.22;;
39750;SDS011;37579;51.074;17.004;2023-03-23T02:14:19;5.13;;;3.13;;
39750;SDS011;37579;51.074;17.004;2023-03-23T02:16:48;4.38;;;2.88;;
39750;SDS011;37579;51.074;17.004;2023-03-23T02:30:07;5.18;;;3.13;;
39750;SDS011;37579;51.074;17.004;2023-03-23T02:35:39;4.22;;;2.88;;
39750;SDS011;37579;51.074;17.004;2023-03-23T02:38:16;4.40;;;3.00;;
39750;SDS011;37579;51.074;17.004;2023-03-23T02:40:48;3.75;;;2.83;;
39750;SDS011;37579;51.074;17.004;2023-03-23T02:43:20;4.25;;;2.95;;
39750;SDS011;37579;51.074;17.004;2023-03-23T02:45:50;4.45;;;2.97;;
39750;SDS011;37579;51.074;17.004;2023-03-23T02:48:18;4.15;;;2.90;;
39750;SDS011;37579;51.074;17.004;2023-03-23T02:50:49;4.40;;;2.80;;
39750;SDS011;37579;51.074;17.004;2023-03-23T02:53:18;4.45;;;2.90;;
39750;SDS011;37579;51.074;17.004;2023-03-23T02:55:49;3.70;;;2.65;;
39750;SDS011;37579;51.074;17.004;2023-03-23T02:58:19;4.20;;;3.03;;
39750;SDS011;37579;51.074;17.004;2023-03-23T03:00:50;4.55;;;2.92;;
39750;SDS011;37579;51.074;17.004;2023-03-23T03:03:19;4.80;;;3.17;;
39750;SDS011;37579;51.074;17.004;2023-03-23T03:08:37;4.55;;;2.80;;
39750;SDS011;37579;51.074;17.004;2023-03-23T03:11:20;4.80;;;2.70;;
39750;SDS011;37579;51.074;17.004;2023-03-23T03:13:57;4.20;;;2.83;;
39750;SDS011;37579;51.074;17.004;2023-03-23T03:19:20;4.82;;;2.95;;
39750;SDS011;37579;51.074;17.004;2023-03-23T03:21:52;4.50;;;2.78;;
39750;SDS011;37579;51.074;17.004;2023-03-23T03:24:27;4.43;;;2.80;;
39750;SDS011;37579;51.074;17.004;2023-03-23T03:26:55;4.63;;;2.90;;
39750;SDS011;37579;51.074;17.004;2023-03-23T03:29:32;3.60;;;2.55;;
39750;SDS011;37579;51.074;17.004;2023-03-23T03:32:01;4.05;;;2.45;;
39750;SDS011;37579;51.074;17.004;2023-03-23T03:34:30;3.42;;;2.45;;
39750;SDS011;37579;51.074;17.004;2023-03-23T03:36:58;4.18;;;2.55;;
39750;SDS011;37579;51.074;17.004;2023-03-23T03:39:25;4.68;;;2.70;;
39750;SDS011;37579;51.074;17.004;2023-03-23T03:41:52;3.92;;;2.63;;
39750;SDS011;37579;51.074;17.004;2023-03-23T03:44:19;3.40;;;2.58;;
39750;SDS011;37579;51.074;17.004;2023-03-23T03:46:45;5.30;;;3.00;;
39750;SDS011;37579;51.074;17.004;2023-03-23T03:49:11;3.67;;;2.42;;
39750;SDS011;37579;51.074;17.004;2023-03-23T03:51:39;4.40;;;2.90;;
39750;SDS011;37579;51.074;17.004;2023-03-23T03:54:10;3.90;;;2.65;;
39750;SDS011;37579;51.074;17.004;2023-03-23T03:56:37;3.20;;;2.10;;
39750;SDS011;37579;51.074;17.004;2023-03-23T03:59:34;3.50;;;2.55;;
39750;SDS011;37579;51.074;17.004;2023-03-23T04:02:19;2.97;;;2.10;;
39750;SDS011;37579;51.074;17.004;2023-03-23T04:04:48;4.25;;;2.58;;
39750;SDS011;37579;51.074;17.004;2023-03-23T04:07:15;3.85;;;2.38;;
39750;SDS011;37579;51.074;17.004;2023-03-23T04:09:44;3.60;;;2.33;;
39750;SDS011;37579;51.074;17.004;2023-03-23T04:12:15;3.88;;;2.40;;
39750;SDS011;37579;51.074;17.004;2023-03-23T04:14:56;3.80;;;2.20;;
39750;SDS011;37579;51.074;17.004;2023-03-23T04:17:31;3.63;;;2.50;;
39750;SDS011;37579;51.074;17.004;2023-03-23T04:19:56;3.40;;;2.42;;
39750;SDS011;37579;51.074;17.004;2023-03-23T04:22:24;3.47;;;2.30;;
39750;SDS011;37579;51.074;17.004;2023-03-23T04:24:57;4.17;;;2.57;;
39750;SDS011;37579;51.074;17.004;2023-03-23T04:27:26;3.88;;;2.20;;
39750;SDS011;37579;51.074;17.004;2023-03-23T04:29:54;3.22;;;2.28;;
39750;SDS011;37579;51.074;17.004;2023-03-23T04:32:38;4.38;;;2.40;;
39750;SDS011;37579;51.074;17.004;2023-03-23T04:35:10;3.55;;;2.42;;
39750;SDS011;37579;51.074;17.004;2023-03-23T04:37:44;4.60;;;2.55;;
39750;SDS011;37579;51.074;17.004;2023-03-23T04:40:13;3.80;;;2.45;;
39750;SDS011;37579;51.074;17.004;2023-03-23T04:42:46;3.65;;;2.58;;
39750;SDS011;37579;51.074;17.004;2023-03-23T04:45:29;4.78;;;2.50;;
39750;SDS011;37579;51.074;17.004;2023-03-23T04:47:59;3.83;;;2.42;;
39750;SDS011;37579;51.074;17.004;2023-03-23T04:50:34;2.65;;;2.10;;
39750;SDS011;37579;51.074;17.004;2023-03-23T04:53:11;4.18;;;2.20;;
39750;SDS011;37579;51.074;17.004;2023-03-23T04:55:38;3.88;;;2.30;;
39750;SDS011;37579;51.074;17.004;2023-03-23T04:58:07;3.35;;;2.05;;
39750;SDS011;37579;51.074;17.004;2023-03-23T05:00:51;3.03;;;2.10;;
39750;SDS011;37579;51.074;17.004;2023-03-23T05:03:21;4.07;;;2.40;;
39750;SDS011;37579;51.074;17.004;2023-03-23T05:05:48;3.47;;;2.42;;
39750;SDS011;37579;51.074;17.004;2023-03-23T05:08:18;3.47;;;2.30;;
39750;SDS011;37579;51.074;17.004;2023-03-23T05:10:51;4.03;;;2.17;;
39750;SDS011;37579;51.074;17.004;2023-03-23T05:13:18;6.40;;;2.28;;
39750;SDS011;37579;51.074;17.004;2023-03-23T05:15:48;2.50;;;1.83;;
39750;SDS011;37579;51.074;17.004;2023-03-23T05:18:14;3.33;;;2.20;;
39750;SDS011;37579;51.074;17.004;2023-03-23T05:20:41;4.45;;;2.20;;
39750;SDS011;37579;51.074;17.004;2023-03-23T05:23:13;3.13;;;2.20;;
39750;SDS011;37579;51.074;17.004;2023-03-23T05:25:39;3.35;;;2.25;;
39750;SDS011;37579;51.074;17.004;2023-03-23T05:28:24;2.60;;;1.98;;
39750;SDS011;37579;51.074;17.004;2023-03-23T05:31:03;4.43;;;2.03;;
39750;SDS011;37579;51.074;17.004;2023-03-23T05:33:31;3.45;;;2.53;;
39750;SDS011;37579;51.074;17.004;2023-03-23T05:36:14;4.70;;;2.45;;
39750;SDS011;37579;51.074;17.004;2023-03-23T05:39:07;2.80;;;2.20;;
39750;SDS011;37579;51.074;17.004;2023-03-23T05:41:53;3.83;;;1.90;;
39750;SDS011;37579;51.074;17.004;2023-03-23T05:44:21;4.28;;;2.05;;
39750;SDS011;37579;51.074;17.004;2023-03-23T05:46:50;4.32;;;1.92;;
39750;SDS011;37579;51.074;17.004;2023-03-23T05:49:16;3.95;;;2.45;;
39750;SDS011;37579;51.074;17.004;2023-03-23T05:51:43;4.55;;;1.90;;
39750;SDS011;37579;51.074;17.004;2023-03-23T05:54:12;4.50;;;2.00;;
39750;SDS011;37579;51.074;17.004;2023-03-23T05:56:40;7.47;;;2.03;;
39750;SDS011;37579;51.074;17.004;2023-03-23T05:59:23;4.70;;;2.10;;
39750;SDS011;37579;51.074;17.004;2023-03-23T06:01:52;4.65;;;2.55;;
39750;SDS011;37579;51.074;17.004;2023-03-23T06:04:19;3.20;;;2.15;;
39750;SDS011;37579;51.074;17.004;2023-03-23T06:07:12;3.80;;;1.77;;
39750;SDS011;37579;51.074;17.004;2023-03-23T06:09:44;4.03;;;2.20;;
39750;SDS011;37579;51.074;17.004;2023-03-23T06:12:33;3.47;;;2.05;;
39750;SDS011;37579;51.074;17.004;2023-03-23T06:15:11;3.65;;;1.77;;
39750;SDS011;37579;51.074;17.004;2023-03-23T06:18:00;4.03;;;1.85;;
39750;SDS011;37579;51.074;17.004;2023-03-23T06:20:39;4.15;;;1.67;;
39750;SDS011;37579;51.074;17.004;2023-03-23T06:23:38;4.40;;;1.88;;
39750;SDS011;37579;51.074;17.004;2023-03-23T06:26:05;3.95;;;1.90;;
39750;SDS011;37579;51.074;17.004;2023-03-23T06:28:33;5.82;;;2.25;;
39750;SDS011;37579;51.074;17.004;2023-03-23T06:31:00;3.72;;;2.10;;
39750;SDS011;37579;51.074;17.004;2023-03-23T06:33:27;5.15;;;1.95;;
39750;SDS011;37579;51.074;17.004;2023-03-23T06:39:19;3.17;;;1.83;;
39750;SDS011;37579;51.074;17.004;2023-03-23T06:42:08;3.05;;;2.00;;
39750;SDS011;37579;51.074;17.004;2023-03-23T06:44:39;5.90;;;2.28;;
39750;SDS011;37579;51.074;17.004;2023-03-23T06:47:05;4.25;;;1.85;;
39750;SDS011;37579;51.074;17.004;2023-03-23T06:49:35;5.05;;;2.13;;
39750;SDS011;37579;51.074;17.004;2023-03-23T06:52:23;2.53;;;1.60;;
39750;SDS011;37579;51.074;17.004;2023-03-23T06:54:50;4.25;;;1.75;;
39750;SDS011;37579;51.074;17.004;2023-03-23T06:57:18;5.18;;;1.65;;
39750;SDS011;37579;51.074;17.004;2023-03-23T06:59:46;3.10;;;1.80;;
39750;SDS011;37579;51.074;17.004;2023-03-23T07:02:12;5.30;;;2.00;;
39750;SDS011;37579;51.074;17.004;2023-03-23T07:04:40;5.43;;;1.85;;
39750;SDS011;37579;51.074;17.004;2023-03-23T07:07:15;5.10;;;1.90;;
39750;SDS011;37579;51.074;17.004;2023-03-23T07:09:51;3.95;;;1.73;;
39750;SDS011;37579;51.074;17.004;2023-03-23T07:12:21;4.40;;;1.73;;
39750;SDS011;37579;51.074;17.004;2023-03-23T07:14:47;4.60;;;1.60;;
39750;SDS011;37579;51.074;17.004;2023-03-23T07:17:13;2.97;;;1.70;;
39750;SDS011;37579;51.074;17.004;2023-03-23T07:19:50;6.97;;;2.20;;
39750;SDS011;37579;51.074;17.004;2023-03-23T07:22:17;4.72;;;2.10;;
39750;SDS011;37579;51.074;17.004;2023-03-23T07:24:49;2.53;;;1.90;;
39750;SDS011;37579;51.074;17.004;2023-03-23T07:27:21;3.20;;;1.90;;
39750;SDS011;37579;51.074;17.004;2023-03-23T07:29:50;3.97;;;1.65;;
39750;SDS011;37579;51.074;17.004;2023-03-23T07:32:21;5.00;;;2.08;;
39750;SDS011;37579;51.074;17.004;2023-03-23T07:34:47;3.25;;;1.77;;
39750;SDS011;37579;51.074;17.004;2023-03-23T07:37:21;4.45;;;2.10;;
39750;SDS011;37579;51.074;17.004;2023-03-23T07:39:48;2.67;;;1.73;;
39750;SDS011;37579;51.074;17.004;2023-03-23T07:42:15;3.95;;;1.90;;
39750;SDS011;37579;51.074;17.004;2023-03-23T07:44:46;2.40;;;1.65;;
39750;SDS011;37579;51.074;17.004;2023-03-23T07:47:13;2.40;;;1.80;;
39750;SDS011;37579;51.074;17.004;2023-03-23T07:49:39;2.58;;;1.67;;
39750;SDS011;37579;51.074;17.004;2023-03-23T07:52:26;3.25;;;1.67;;
39750;SDS011;37579;51.074;17.004;2023-03-23T07:54:52;6.70;;;1.80;;
39750;SDS011;37579;51.074;17.004;2023-03-23T07:57:54;3.70;;;1.65;;
39750;SDS011;37579;51.074;17.004;2023-03-23T08:00:20;3.95;;;1.55;;
39750;SDS011;37579;51.074;17.004;2023-03-23T08:02:52;2.67;;;1.60;;
39750;SDS011;37579;51.074;17.004;2023-03-23T08:05:24;3.35;;;2.10;;
39750;SDS011;37579;51.074;17.004;2023-03-23T08:08:25;4.32;;;1.70;;
39750;SDS011;37579;51.074;17.004;2023-03-23T08:11:10;5.38;;;2.28;;
39750;SDS011;37579;51.074;17.004;2023-03-23T08:13:52;5.43;;;1.73;;
39750;SDS011;37579;51.074;17.004;2023-03-23T08:16:18;2.60;;;1.50;;
39750;SDS011;37579;51.074;17.004;2023-03-23T08:18:54;3.08;;;1.52;;
39750;SDS011;37579;51.074;17.004;2023-03-23T08:21:48;4.30;;;1.63;;
39750;SDS011;37579;51.074;17.004;2023-03-23T08:24:46;2.97;;;1.63;;
39750;SDS011;37579;51.074;17.004;2023-03-23T08:27:44;4.78;;;1.83;;
39750;SDS011;37579;51.074;17.004;2023-03-23T08:30:38;3.45;;;1.60;;
39750;SDS011;37579;51.074;17.004;2023-03-23T08:33:40;3.08;;;1.55;;
39750;SDS011;37579;51.074;17.004;2023-03-23T08:36:20;3.72;;;1.73;;
39750;SDS011;37579;51.074;17.004;2023-03-23T08:38:59;4.00;;;1.80;;
39750;SDS011;37579;51.074;17.004;2023-03-23T08:41:25;3.40;;;1.67;;
39750;SDS011;37579;51.074;17.004;2023-03-23T08:44:24;5.35;;;1.63;;
39750;SDS011;37579;51.074;17.004;2023-03-23T08:47:12;5.53;;;1.60;;
39750;SDS011;37579;51.074;17.004;2023-03-23T08:50:04;2.10;;;1.60;;
39750;SDS011;37579;51.074;17.004;2023-03-23T08:52:33;4.63;;;1.63;;
39750;SDS011;37579;51.074;17.004;2023-03-23T08:55:18;3.70;;;1.80;;
39750;SDS011;37579;51.074;17.004;2023-03-23T08:57:52;3.08;;;1.73;;
39750;SDS011;37579;51.074;17.004;2023-03-23T09:00:42;6.53;;;2.70;;
39750;SDS011;37579;51.074;17.004;2023-03-23T09:03:14;3.27;;;1.90;;
39750;SDS011;37579;51.074;17.004;2023-03-23T09:05:59;3.97;;;2.03;;
39750;SDS011;37579;51.074;17.004;2023-03-23T09:08:35;8.82;;;2.58;;
39750;SDS011;37579;51.074;17.004;2023-03-23T09:11:02;6.75;;;2.65;;
39750;SDS011;37579;51.074;17.004;2023-03-23T09:13:29;5.25;;;2.40;;
39750;SDS011;37579;51.074;17.004;2023-03-23T09:15:55;5.93;;;2.60;;
39750;SDS011;37579;51.074;17.004;2023-03-23T09:18:20;3.40;;;2.08;;
39750;SDS011;37579;51.074;17.004;2023-03-23T09:20:49;3.92;;;2.15;;
39750;SDS011;37579;51.074;17.004;2023-03-23T09:23:16;4.65;;;2.55;;
39750;SDS011;37579;51.074;17.004;2023-03-23T09:25:42;4.40;;;2.30;;
39750;SDS011;37579;51.074;17.004;2023-03-23T09:28:08;5.18;;;2.42;;
39750;SDS011;37579;51.074;17.004;2023-03-23T09:30:34;4.78;;;2.55;;
39750;SDS011;37579;51.074;17.004;2023-03-23T09:33:02;3.10;;;1.90;;
39750;SDS011;37579;51.074;17.004;2023-03-23T09:35:30;3.85;;;2.10;;
39750;SDS011;37579;51.074;17.004;2023-03-23T09:37:59;4.45;;;2.03;;
39750;SDS011;37579;51.074;17.004;2023-03-23T09:40:27;6.38;;;2.15;;
39750;SDS011;37579;51.074;17.004;2023-03-23T09:43:24;3.35;;;1.98;;
39750;SDS011;37579;51.074;17.004;2023-03-23T09:48:56;2.80;;;1.60;;
39750;SDS011;37579;51.074;17.004;2023-03-23T09:56:39;4.40;;;1.40;;
39750;SDS011;37579;51.074;17.004;2023-03-23T09:59:11;2.90;;;1.60;;
39750;SDS011;37579;51.074;17.004;2023-03-23T10:01:40;3.85;;;1.58;;
39750;SDS011;37579;51.074;17.004;2023-03-23T10:06:39;4.20;;;1.80;;
39750;SDS011;37579;51.074;17.004;2023-03-23T10:09:05;3.00;;;1.42;;
39750;SDS011;37579;51.074;17.004;2023-03-23T10:20:29;2.58;;;1.63;;
39750;SDS011;37579;51.074;17.004;2023-03-23T10:22:31;3.25;;;1.35;;
39750;SDS011;37579;51.074;17.004;2023-03-23T10:27:44;3.80;;;1.35;;
39750;SDS011;37579;51.074;17.004;2023-03-23T10:30:17;1.77;;;1.10;;
39750;SDS011;37579;51.074;17.004;2023-03-23T10:38:29;2.58;;;1.20;;
39750;SDS011;37579;51.074;17.004;2023-03-23T10:41:12;3.83;;;1.90;;
39750;SDS011;37579;51.074;17.004;2023-03-23T10:43:41;4.10;;;1.30;;
39750;SDS011;37579;51.074;17.004;2023-03-23T10:48:53;3.17;;;1.23;;
39750;SDS011;37579;51.074;17.004;2023-03-23T10:51:23;4.57;;;0.90;;
39750;SDS011;37579;51.074;17.004;2023-03-23T10:54:00;1.90;;;0.90;;
39750;SDS011;37579;51.074;17.004;2023-03-23T10:56:29;1.13;;;0.88;;
39750;SDS011;37579;51.074;17.004;2023-03-23T10:59:26;2.00;;;1.02;;
39750;SDS011;37579;51.074;17.004;2023-03-23T11:01:55;1.50;;;0.90;;
39750;SDS011;37579;51.074;17.004;2023-03-23T11:04:23;3.42;;;1.00;;
39750;SDS011;37579;51.074;17.004;2023-03-23T11:06:51;2.95;;;0.98;;
39750;SDS011;37579;51.074;17.004;2023-03-23T11:09:20;2.92;;;1.10;;
39750;SDS011;37579;51.074;17.004;2023-03-23T11:11:57;1.30;;;0.90;;
39750;SDS011;37579;51.074;17.004;2023-03-23T11:16:55;1.52;;;0.55;;
39750;SDS011;37579;51.074;17.004;2023-03-23T11:19:34;1.30;;;0.80;;
39750;SDS011;37579;51.074;17.004;2023-03-23T11:24:31;1.40;;;0.65;;
39750;SDS011;37579;51.074;17.004;2023-03-23T11:26:59;3.83;;;1.10;;
39750;SDS011;37579;51.074;17.004;2023-03-23T11:29:26;1.92;;;1.45;;
39750;SDS011;37579;51.074;17.004;2023-03-23T11:34:29;2.25;;;1.13;;
39750;SDS011;37579;51.074;17.004;2023-03-23T11:37:11;1.92;;;1.25;;
39750;SDS011;37579;51.074;17.004;2023-03-23T11:42:22;1.83;;;1.20;;
39750;SDS011;37579;51.074;17.004;2023-03-23T11:44:53;3.67;;;1.90;;
39750;SDS011;37579;51.074;17.004;2023-03-23T11:53:02;25.48;;;10.13;;
39750;SDS011;37579;51.074;17.004;2023-03-23T11:58:14;7.45;;;3.83;;
39750;SDS011;37579;51.074;17.004;2023-03-23T12:01:05;5.68;;;2.50;;
39750;SDS011;37579;51.074;17.004;2023-03-23T12:11:45;5.93;;;1.73;;
39750;SDS011;37579;51.074;17.004;2023-03-23T12:16:53;2.80;;;1.65;;
39750;SDS011;37579;51.074;17.004;2023-03-23T12:33:09;1.65;;;1.10;;
39750;SDS011;37579;51.074;17.004;2023-03-23T12:41:16;2.33;;;1.10;;
39750;SDS011;37579;51.074;17.004;2023-03-23T12:44:07;2.17;;;1.30;;
39750;SDS011;37579;51.074;17.004;2023-03-23T12:46:49;2.67;;;1.30;;
39750;SDS011;37579;51.074;17.004;2023-03-23T12:49:28;4.15;;;1.70;;
39750;SDS011;37579;51.074;17.004;2023-03-23T12:52:16;2.88;;;1.88;;
39750;SDS011;37579;51.074;17.004;2023-03-23T12:55:47;3.75;;;2.20;;
39750;SDS011;37579;51.074;17.004;2023-03-23T12:58:07;4.43;;;2.08;;
39750;SDS011;37579;51.074;17.004;2023-03-23T13:03:27;3.83;;;1.95;;
39750;SDS011;37579;51.074;17.004;2023-03-23T13:11:33;2.80;;;1.33;;
39750;SDS011;37579;51.074;17.004;2023-03-23T13:14:17;3.03;;;1.60;;
39750;SDS011;37579;51.074;17.004;2023-03-23T13:19:27;2.92;;;1.73;;
39750;SDS011;37579;51.074;17.004;2023-03-23T13:24:36;2.40;;;1.45;;
39750;SDS011;37579;51.074;17.004;2023-03-23T13:27:07;2.38;;;1.42;;
39750;SDS011;37579;51.074;17.004;2023-03-23T13:29:43;1.80;;;1.20;;
39750;SDS011;37579;51.074;17.004;2023-03-23T13:32:12;4.70;;;1.52;;
39750;SDS011;37579;51.074;17.004;2023-03-23T13:34:42;2.80;;;1.48;;
39750;SDS011;37579;51.074;17.004;2023-03-23T13:37:20;2.83;;;1.38;;
39750;SDS011;37579;51.074;17.004;2023-03-23T13:42:27;3.33;;;1.50;;
39750;SDS011;37579;51.074;17.004;2023-03-23T13:47:36;2.20;;;1.42;;
39750;SDS011;37579;51.074;17.004;2023-03-23T14:05:59;3.58;;;1.52;;
39750;SDS011;37579;51.074;17.004;2023-03-23T14:11:01;2.22;;;1.10;;
39750;SDS011;37579;51.074;17.004;2023-03-23T14:17:06;2.67;;;1.30;;
39750;SDS011;37579;51.074;17.004;2023-03-23T14:19:38;2.47;;;1.02;;
39750;SDS011;37579;51.074;17.004;2023-03-23T14:22:17;2.10;;;1.15;;
39750;SDS011;37579;51.074;17.004;2023-03-23T14:24:45;2.40;;;1.35;;
39750;SDS011;37579;51.074;17.004;2023-03-23T14:27:15;3.33;;;1.55;;
39750;SDS011;37579;51.074;17.004;2023-03-23T14:29:43;1.95;;;1.38;;
39750;SDS011;37579;51.074;17.004;2023-03-23T14:32:17;3.90;;;1.38;;
39750;SDS011;37579;51.074;17.004;2023-03-23T14:34:46;2.03;;;1.00;;
39750;SDS011;37579;51.074;17.004;2023-03-23T14:37:13;3.08;;;1.10;;
39750;SDS011;37579;51.074;17.004;2023-03-23T14:39:43;3.95;;;1.20;;
39750;SDS011;37579;51.074;17.004;2023-03-23T14:42:15;2.78;;;1.23;;
39750;SDS011;37579;51.074;17.004;2023-03-23T14:44:51;2.08;;;1.33;;
39750;SDS011;37579;51.074;17.004;2023-03-23T14:47:30;2.55;;;1.20;;
39750;SDS011;37579;51.074;17.004;2023-03-23T14:49:59;3.55;;;1.30;;
39750;SDS011;37579;51.074;17.004;2023-03-23T14:52:32;3.47;;;1.20;;
39750;SDS011;37579;51.074;17.004;2023-03-23T14:57:46;4.68;;;1.30;;
39750;SDS011;37579;51.074;17.004;2023-03-23T15:00:17;3.28;;;1.58;;
39750;SDS011;37579;51.074;17.004;2023-03-23T15:02:45;2.78;;;1.15;;
39750;SDS011;37579;51.074;17.004;2023-03-23T15:05:22;4.57;;;1.30;;
39750;SDS011;37579;51.074;17.004;2023-03-23T15:07:53;4.65;;;1.40;;
39750;SDS011;37579;51.074;17.004;2023-03-23T15:10:23;2.88;;;1.08;;
39750;SDS011;37579;51.074;17.004;2023-03-23T15:12:50;2.60;;;1.10;;
39750;SDS011;37579;51.074;17.004;2023-03-23T15:15:27;2.28;;;0.82;;
39750;SDS011;37579;51.074;17.004;2023-03-23T15:17:55;1.85;;;1.10;;
39750;SDS011;37579;51.074;17.004;2023-03-23T15:20:23;2.35;;;1.08;;
39750;SDS011;37579;51.074;17.004;2023-03-23T15:22:51;3.25;;;1.63;;
39750;SDS011;37579;51.074;17.004;2023-03-23T15:25:19;2.38;;;1.30;;
39750;SDS011;37579;51.074;17.004;2023-03-23T15:32:51;2.20;;;1.17;;
39750;SDS011;37579;51.074;17.004;2023-03-23T15:35:26;3.38;;;1.33;;
39750;SDS011;37579;51.074;17.004;2023-03-23T15:37:58;1.83;;;1.10;;
39750;SDS011;37579;51.074;17.004;2023-03-23T15:40:40;2.53;;;1.08;;
39750;SDS011;37579;51.074;17.004;2023-03-23T15:46:03;2.75;;;0.98;;
39750;SDS011;37579;51.074;17.004;2023-03-23T15:49:04;1.83;;;1.25;;
39750;SDS011;37579;51.074;17.004;2023-03-23T15:51:34;2.58;;;1.00;;
39750;SDS011;37579;51.074;17.004;2023-03-23T15:54:02;3.65;;;1.10;;
39750;SDS011;37579;51.074;17.004;2023-03-23T15:56:28;3.25;;;1.40;;
39750;SDS011;37579;51.074;17.004;2023-03-23T15:58:56;2.55;;;1.48;;
39750;SDS011;37579;51.074;17.004;2023-03-23T16:01:26;4.43;;;1.77;;
39750;SDS011;37579;51.074;17.004;2023-03-23T16:03:57;2.85;;;1.52;;
39750;SDS011;37579;51.074;17.004;2023-03-23T16:06:25;2.53;;;1.80;;
39750;SDS011;37579;51.074;17.004;2023-03-23T16:08:53;3.22;;;1.88;;
39750;SDS011;37579;51.074;17.004;2023-03-23T16:11:19;3.42;;;2.00;;
39750;SDS011;37579;51.074;17.004;2023-03-23T16:13:45;6.70;;;2.63;;
39750;SDS011;37579;51.074;17.004;2023-03-23T16:16:13;4.55;;;2.58;;
39750;SDS011;37579;51.074;17.004;2023-03-23T16:18:45;4.45;;;2.67;;
39750;SDS011;37579;51.074;17.004;2023-03-23T16:21:11;6.22;;;2.67;;
39750;SDS011;37579;51.074;17.004;2023-03-23T16:23:37;6.22;;;2.88;;
39750;SDS011;37579;51.074;17.004;2023-03-23T16:26:04;4.03;;;2.58;;
39750;SDS011;37579;51.074;17.004;2023-03-23T16:28:31;4.80;;;2.38;;
39750;SDS011;37579;51.074;17.004;2023-03-23T16:30:56;3.92;;;2.38;;
39750;SDS011;37579;51.074;17.004;2023-03-23T16:33:22;4.95;;;3.03;;
39750;SDS011;37579;51.074;17.004;2023-03-23T16:35:48;7.15;;;3.13;;
39750;SDS011;37579;51.074;17.004;2023-03-23T16:38:15;5.15;;;3.17;;
39750;SDS011;37579;51.074;17.004;2023-03-23T16:40:42;5.43;;;3.08;;
39750;SDS011;37579;51.074;17.004;2023-03-23T16:43:09;7.50;;;3.10;;
39750;SDS011;37579;51.074;17.004;2023-03-23T16:45:36;8.98;;;4.07;;
39750;SDS011;37579;51.074;17.004;2023-03-23T16:48:04;7.72;;;3.53;;
39750;SDS011;37579;51.074;17.004;2023-03-23T16:50:31;7.03;;;3.30;;
39750;SDS011;37579;51.074;17.004;2023-03-23T16:52:57;5.78;;;2.85;;
39750;SDS011;37579;51.074;17.004;2023-03-23T16:55:23;5.72;;;3.60;;
39750;SDS011;37579;51.074;17.004;2023-03-23T16:57:51;5.30;;;3.30;;
39750;SDS011;37579;51.074;17.004;2023-03-23T17:00:18;5.68;;;3.17;;
39750;SDS011;37579;51.074;17.004;2023-03-23T17:02:44;7.00;;;3.58;;
39750;SDS011;37579;51.074;17.004;2023-03-23T17:05:12;5.78;;;3.30;;
39750;SDS011;37579;51.074;17.004;2023-03-23T17:07:40;5.65;;;3.38;;
39750;SDS011;37579;51.074;17.004;2023-03-23T17:10:07;7.70;;;3.90;;
39750;SDS011;37579;51.074;17.004;2023-03-23T17:12:34;7.85;;;3.90;;
39750;SDS011;37579;51.074;17.004;2023-03-23T17:15:00;7.68;;;4.25;;
39750;SDS011;37579;51.074;17.004;2023-03-23T17:17:27;9.55;;;4.13;;
39750;SDS011;37579;51.074;17.004;2023-03-23T17:19:53;7.38;;;4.43;;
39750;SDS011;37579;51.074;17.004;2023-03-23T17:22:19;7.50;;;4.82;;
39750;SDS011;37579;51.074;17.004;2023-03-23T17:24:45;5.65;;;4.40;;
39750;SDS011;37579;51.074;17.004;2023-03-23T17:27:12;7.60;;;4.43;;
39750;SDS011;37579;51.074;17.004;2023-03-23T17:29:39;9.82;;;5.10;;
39750;SDS011;37579;51.074;17.004;2023-03-23T17:32:05;8.20;;;4.88;;
39750;SDS011;37579;51.074;17.004;2023-03-23T17:34:31;6.82;;;4.88;;
39750;SDS011;37579;51.074;17.004;2023-03-23T17:36:56;8.38;;;4.85;;
39750;SDS011;37579;51.074;17.004;2023-03-23T17:39:22;7.25;;;4.10;;